Time;durP1;ratioP1;P1;durP2;ratioP2;P2;SDS_P1;SDS_P2;PMS_P1;PMS_P2;Temp;Humidity;BMP_temperature;BMP_pressure;BME280_temperature;BME280_humidity;BME280_pressure;Samples;Min_cycle;Max_cycle;Signal;HPM_P1;HPM_P2
2023/01/05 00:01:13;;;;;;;28.95;5.05;;;11.20;99.90;;;;;;5034717;28;20401;-72
2023/01/05 00:03:39;;;;;;;22.30;4.32;;;11.20;99.90;;;;;;5031984;28;20099;-73
2023/01/05 00:06:10;;;;;;;27.85;5.68;;;11.20;99.90;;;;;;5033112;28;20136;-73
2023/01/05 00:08:35;;;;;;;34.00;5.75;;;11.20;99.90;;;;;;5044620;28;20027;-73
2023/01/05 00:22:30;;;;;;;26.50;5.05;;;11.00;99.90;;;;;;5052037;28;20059;-73
2023/01/05 00:25:05;;;;;;;33.55;5.70;;;11.00;99.90;;;;;;5051887;28;20100;-73
2023/01/05 00:27:31;;;;;;;34.42;4.97;;;10.90;99.90;;;;;;5052292;28;20477;-73
2023/01/05 00:29:58;;;;;;;39.25;4.90;;;11.00;99.90;;;;;;5052076;28;20033;-72
2023/01/05 00:32:24;;;;;;;30.65;5.32;;;11.00;99.90;;;;;;5051769;28;20029;-72
2023/01/05 00:34:53;;;;;;;39.28;5.82;;;11.00;99.90;;;;;;5051982;28;20465;-73
2023/01/05 00:37:19;;;;;;;23.52;4.53;;;10.90;99.90;;;;;;5052221;28;20078;-73
2023/01/05 00:39:44;;;;;;;37.13;5.80;;;10.90;99.90;;;;;;5051768;28;20037;-73
2023/01/05 00:42:10;;;;;;;31.00;5.40;;;10.90;99.90;;;;;;5052185;28;20473;-73
2023/01/05 00:44:35;;;;;;;30.13;4.55;;;10.90;99.90;;;;;;5052468;28;20386;-73
2023/01/05 00:47:01;;;;;;;35.08;5.15;;;10.80;99.90;;;;;;5052104;28;20025;-73
2023/01/05 00:49:26;;;;;;;33.83;5.63;;;10.90;99.90;;;;;;5052605;28;20503;-72
2023/01/05 00:51:52;;;;;;;29.52;4.18;;;10.90;99.90;;;;;;5051228;28;20021;-72
2023/01/05 00:54:17;;;;;;;36.10;5.47;;;10.90;99.90;;;;;;5052209;28;20043;-72
2023/01/05 00:56:45;;;;;;;30.70;4.68;;;10.90;99.90;;;;;;5052204;28;20025;-72
2023/01/05 00:59:10;;;;;;;31.58;5.03;;;10.90;99.90;;;;;;5051176;28;20485;-72
2023/01/05 01:01:36;;;;;;;36.17;5.43;;;10.90;99.90;;;;;;5052570;28;20051;-72
2023/01/05 01:04:01;;;;;;;26.38;5.45;;;10.80;99.90;;;;;;5052138;28;20028;-73
2023/01/05 01:06:27;;;;;;;33.63;5.63;;;10.80;99.90;;;;;;5038179;28;20580;-72
2023/01/05 01:08:53;;;;;;;32.65;5.30;;;10.80;99.90;;;;;;5039001;28;20087;-74
2023/01/05 01:11:18;;;;;;;29.25;5.35;;;10.80;99.90;;;;;;5031308;28;20032;-73
2023/01/05 01:13:44;;;;;;;36.72;5.65;;;10.80;99.90;;;;;;5041010;28;20084;-74
2023/01/05 01:16:12;;;;;;;35.13;5.30;;;10.70;99.90;;;;;;5029232;28;20030;-73
2023/01/05 01:18:39;;;;;;;36.03;6.03;;;10.70;99.90;;;;;;5029975;28;20025;-73
2023/01/05 01:21:05;;;;;;;43.80;6.78;;;10.80;99.90;;;;;;5029250;28;20636;-73
2023/01/05 01:23:32;;;;;;;37.42;6.47;;;10.70;99.90;;;;;;5029501;28;20060;-73
2023/01/05 01:26:02;;;;;;;38.88;5.18;;;10.80;99.90;;;;;;5029590;28;20104;-74
2023/01/05 01:28:28;;;;;;;24.92;4.10;;;10.80;99.90;;;;;;5028858;28;20042;-74
2023/01/05 01:30:55;;;;;;;41.45;6.78;;;10.80;99.90;;;;;;5029249;28;20078;-74
2023/01/05 01:33:21;;;;;;;37.33;6.47;;;10.80;99.90;;;;;;5029690;28;20500;-73
2023/01/05 01:35:46;;;;;;;34.20;5.65;;;10.80;99.90;;;;;;5030313;28;20025;-73
2023/01/05 01:38:12;;;;;;;39.42;5.72;;;10.80;99.90;;;;;;5038356;28;20400;-74
2023/01/05 01:40:42;;;;;;;45.47;7.25;;;10.80;99.90;;;;;;5032547;28;20549;-73
2023/01/05 01:43:17;;;;;;;30.88;4.90;;;10.80;99.90;;;;;;5029607;28;20374;-73
2023/01/05 01:45:43;;;;;;;43.03;5.18;;;10.80;99.90;;;;;;5030947;28;20037;-74
2023/01/05 01:48:13;;;;;;;28.95;5.82;;;10.80;99.90;;;;;;5030433;28;20535;-74
2023/01/05 01:50:52;;;;;;;32.37;6.07;;;10.70;99.90;;;;;;5031118;28;20528;-73
2023/01/05 01:53:23;;;;;;;41.00;6.10;;;10.80;99.90;;;;;;5035241;28;20260;-75
2023/01/05 01:55:51;;;;;;;41.15;5.68;;;10.80;99.90;;;;;;5034095;28;20029;-75
2023/01/05 01:58:20;;;;;;;26.08;4.78;;;10.80;99.90;;;;;;5037050;28;20072;-73
2023/01/05 02:00:47;;;;;;;31.42;4.90;;;10.80;99.90;;;;;;5039104;28;20083;-75
2023/01/05 02:03:13;;;;;;;35.67;5.95;;;10.80;99.90;;;;;;5034641;28;20033;-74
2023/01/05 02:05:39;;;;;;;38.58;6.03;;;10.70;99.90;;;;;;5034846;28;20113;-72
2023/01/05 02:08:11;;;;;;;25.92;4.40;;;10.70;99.90;;;;;;5047742;28;20116;-73
2023/01/05 02:10:55;;;;;;;33.00;6.55;;;10.70;99.90;;;;;;5054424;28;20027;-73
2023/01/05 02:13:46;;;;;;;43.35;6.32;;;10.70;99.90;;;;;;5055032;28;20469;-76
2023/01/05 02:16:54;;;;;;;28.63;4.25;;;10.70;99.90;;;;;;5054225;28;20032;-73
2023/01/05 02:19:32;;;;;;;28.85;4.68;;;10.70;99.90;;;;;;5043383;28;20052;-74
2023/01/05 02:22:09;;;;;;;32.30;5.90;;;10.60;99.90;;;;;;5054463;28;20039;-75
2023/01/05 02:24:53;;;;;;;34.80;5.53;;;10.60;99.90;;;;;;5054385;28;20119;-74
2023/01/05 02:27:21;;;;;;;37.25;6.53;;;10.50;99.90;;;;;;5054306;28;20025;-74
2023/01/05 02:30:17;;;;;;;52.35;6.20;;;10.60;99.90;;;;;;5054680;28;20045;-74
2023/01/05 02:33:04;;;;;;;31.15;5.90;;;10.50;99.90;;;;;;5035370;28;20100;-74
2023/01/05 02:35:42;;;;;;;33.22;5.43;;;10.60;99.90;;;;;;5038792;28;20021;-73
2023/01/05 02:38:25;;;;;;;34.80;5.03;;;10.50;99.90;;;;;;5044226;28;20124;-74
2023/01/05 02:40:55;;;;;;;47.88;6.18;;;10.50;99.90;;;;;;5042785;28;20082;-73
2023/01/05 02:43:21;;;;;;;;;;;10.50;99.90;;;;;;5053273;28;20064;-74
2023/01/05 02:45:47;;;;;;;32.60;4.45;;;10.50;99.90;;;;;;5053852;28;19912;-73
2023/01/05 02:48:13;;;;;;;29.73;5.70;;;10.50;99.90;;;;;;5051780;28;20028;-74
2023/01/05 02:51:00;;;;;;;29.98;4.43;;;10.50;99.90;;;;;;5041552;28;20671;-74
2023/01/05 02:53:40;;;;;;;25.58;5.68;;;10.60;99.90;;;;;;5053084;28;20033;-73
2023/01/05 02:56:08;;;;;;;31.17;5.10;;;10.60;99.90;;;;;;5053980;28;20029;-73
2023/01/05 02:58:42;;;;;;;34.67;4.68;;;10.60;99.90;;;;;;5053111;28;20108;-74
2023/01/05 03:01:37;;;;;;;27.13;4.85;;;10.50;99.90;;;;;;5054125;28;20025;-73
2023/01/05 03:04:08;;;;;;;37.72;6.60;;;10.50;99.90;;;;;;5053340;28;20028;-73
2023/01/05 03:06:45;;;;;;;23.30;3.78;;;10.50;99.90;;;;;;5041279;28;20025;-74
2023/01/05 03:09:13;;;;;;;32.45;5.03;;;10.60;99.90;;;;;;5040386;28;20100;-74
2023/01/05 03:15:11;;;;;;;30.27;5.20;;;10.60;99.90;;;;;;5053211;28;20147;-74
2023/01/05 03:17:46;;;;;;;41.47;5.18;;;10.60;99.90;;;;;;5053561;28;20028;-73
2023/01/05 03:20:14;;;;;;;25.27;3.70;;;10.70;99.90;;;;;;5053480;28;20455;-73
2023/01/05 03:38:06;;;;;;;37.60;5.38;;;10.60;99.90;;;;;;5053602;28;20095;-74
2023/01/05 03:40:35;;;;;;;29.15;5.03;;;10.60;99.90;;;;;;5033571;28;20536;-74
2023/01/05 03:43:03;;;;;;;26.42;3.95;;;10.70;99.90;;;;;;5050555;28;20044;-75
2023/01/05 03:45:39;;;;;;;24.00;4.68;;;10.70;99.90;;;;;;5051640;28;20063;-72
2023/01/05 03:48:05;;;;;;;26.63;5.35;;;10.70;99.90;;;;;;5052411;28;20156;-72
2023/01/05 03:50:31;;;;;;;30.77;5.00;;;10.80;99.90;;;;;;5053398;28;20544;-73
2023/01/05 03:52:57;;;;;;;28.88;4.97;;;10.80;99.90;;;;;;5052703;28;20120;-72
2023/01/05 03:55:22;;;;;;;25.27;4.47;;;10.80;99.90;;;;;;5052814;28;20385;-74
2023/01/05 03:57:48;;;;;;;27.05;3.97;;;10.80;99.90;;;;;;5052558;28;20033;-73
2023/01/05 04:00:14;;;;;;;37.65;5.75;;;10.80;99.90;;;;;;5052184;28;20020;-73
2023/01/05 04:02:39;;;;;;;43.30;5.35;;;10.90;99.90;;;;;;5052085;28;20380;-74
2023/01/05 04:05:05;;;;;;;31.15;5.50;;;10.90;99.90;;;;;;5052605;28;20105;-73
2023/01/05 04:07:31;;;;;;;33.25;5.85;;;10.90;99.90;;;;;;5052727;28;20504;-73
2023/01/05 04:09:56;;;;;;;36.22;5.43;;;10.90;99.90;;;;;;5051780;28;20031;-72
2023/01/05 04:12:22;;;;;;;23.88;4.38;;;10.80;99.90;;;;;;5053190;28;20052;-73
2023/01/05 04:14:47;;;;;;;30.70;5.28;;;10.90;99.90;;;;;;5053168;28;20032;-74
2023/01/05 04:17:13;;;;;;;27.45;5.45;;;10.90;99.90;;;;;;5052286;28;20438;-74
2023/01/05 04:19:39;;;;;;;37.88;7.57;;;10.90;99.90;;;;;;5053192;28;20040;-74
2023/01/05 04:22:04;;;;;;;29.35;5.32;;;10.90;99.90;;;;;;5052111;28;20060;-74
2023/01/05 04:24:30;;;;;;;31.80;4.53;;;10.90;99.90;;;;;;5051997;28;20025;-73
2023/01/05 04:26:55;;;;;;;32.05;5.35;;;10.90;99.90;;;;;;5052145;28;20017;-74
2023/01/05 04:29:21;;;;;;;29.75;4.97;;;10.90;99.90;;;;;;5052019;28;20087;-73
2023/01/05 04:31:46;;;;;;;39.67;6.22;;;10.90;99.90;;;;;;5051788;28;20025;-74
2023/01/05 04:34:12;;;;;;;37.75;5.93;;;10.80;99.90;;;;;;5052019;28;20024;-73
2023/01/05 04:36:37;;;;;;;32.47;4.68;;;10.80;99.90;;;;;;5052757;28;20028;-74
2023/01/05 04:39:03;;;;;;;29.98;4.97;;;10.90;99.90;;;;;;5050967;28;20370;-72
2023/01/05 04:41:29;;;;;;;33.70;4.82;;;10.90;99.90;;;;;;5036906;28;20043;-73
2023/01/05 04:43:54;;;;;;;43.70;5.53;;;10.90;99.90;;;;;;5049884;28;20036;-73
2023/01/05 04:46:20;;;;;;;40.10;6.20;;;10.90;99.90;;;;;;5051625;28;20029;-74
2023/01/05 04:48:45;;;;;;;26.13;5.55;;;10.80;99.90;;;;;;5052245;28;20501;-73
2023/01/05 04:51:11;;;;;;;29.00;6.20;;;10.80;99.90;;;;;;5050960;28;20036;-73
2023/01/05 04:53:36;;;;;;;33.00;5.32;;;10.80;99.90;;;;;;5051971;28;20033;-74
2023/01/05 04:56:02;;;;;;;33.78;4.95;;;10.90;99.90;;;;;;5051856;28;20074;-74
2023/01/05 04:58:28;;;;;;;30.52;5.40;;;10.80;99.90;;;;;;5050668;28;20037;-74
2023/01/05 05:00:54;;;;;;;33.90;6.43;;;10.80;99.90;;;;;;5051720;28;20029;-74
2023/01/05 05:03:19;;;;;;;37.17;7.15;;;10.90;99.90;;;;;;5051360;28;21451;-74
2023/01/05 05:05:45;;;;;;;28.60;4.50;;;10.90;99.90;;;;;;5050988;28;20033;-74
2023/01/05 05:08:10;;;;;;;36.30;5.70;;;10.90;99.90;;;;;;5051206;28;20029;-73
2023/01/05 05:10:37;;;;;;;40.10;5.30;;;10.90;99.90;;;;;;5051960;28;20113;-73
2023/01/05 05:13:02;;;;;;;36.95;4.75;;;10.90;99.90;;;;;;5050874;28;20389;-73
2023/01/05 05:15:28;;;;;;;23.38;3.83;;;11.00;99.90;;;;;;5051225;28;20036;-74
2023/01/05 05:17:53;;;;;;;38.97;6.07;;;11.00;99.90;;;;;;5051311;28;20401;-74
2023/01/05 05:20:19;;;;;;;32.50;4.57;;;11.00;99.90;;;;;;5051005;28;20027;-74
2023/01/05 05:22:45;;;;;;;27.23;4.78;;;11.00;99.90;;;;;;5051963;28;20077;-73
2023/01/05 05:25:10;;;;;;;31.45;4.88;;;11.00;99.90;;;;;;5051290;28;20366;-74
2023/01/05 05:27:36;;;;;;;35.33;6.18;;;11.00;99.90;;;;;;5053630;28;20086;-73
2023/01/05 05:30:02;;;;;;;40.63;5.97;;;10.90;99.90;;;;;;5046061;28;20512;-73
2023/01/05 05:32:29;;;;;;;40.75;6.28;;;11.00;99.90;;;;;;5034141;28;20075;-73
2023/01/05 05:34:54;;;;;;;39.45;6.18;;;10.90;99.90;;;;;;5033342;28;20030;-73
2023/01/05 05:37:20;;;;;;;40.05;5.93;;;10.90;99.90;;;;;;5034442;28;20020;-73
2023/01/05 05:39:45;;;;;;;48.05;6.38;;;11.00;99.90;;;;;;5040238;28;20030;-73
2023/01/05 05:42:11;;;;;;;34.28;5.05;;;11.00;99.90;;;;;;5045438;28;20059;-73
2023/01/05 05:44:36;;;;;;;36.50;5.72;;;11.00;99.90;;;;;;5055175;28;20457;-71
2023/01/05 05:47:02;;;;;;;38.58;5.72;;;11.00;99.90;;;;;;5055279;28;20035;-73
2023/01/05 05:49:28;;;;;;;41.72;6.18;;;11.00;99.90;;;;;;5054426;28;20029;-73
2023/01/05 05:51:53;;;;;;;36.65;5.47;;;10.90;99.90;;;;;;5054955;28;20032;-73
2023/01/05 05:54:19;;;;;;;43.10;7.70;;;11.00;99.90;;;;;;5054687;28;20048;-73
2023/01/05 05:56:44;;;;;;;38.08;7.00;;;11.00;99.90;;;;;;5055782;28;20078;-74
2023/01/05 05:59:10;;;;;;;35.85;5.47;;;11.00;99.90;;;;;;5055449;28;20481;-74
2023/01/05 06:01:36;;;;;;;40.53;6.20;;;11.00;99.90;;;;;;5054576;28;20025;-73
2023/01/05 06:04:01;;;;;;;42.42;8.27;;;11.00;99.90;;;;;;5054971;28;20040;-74
2023/01/05 06:06:27;;;;;;;33.58;4.97;;;11.00;99.90;;;;;;5055174;28;20541;-73
2023/01/05 06:08:52;;;;;;;45.72;6.40;;;10.90;99.90;;;;;;5054427;28;20021;-73
2023/01/05 06:11:18;;;;;;;45.33;6.35;;;10.90;99.90;;;;;;5056172;28;20052;-74
2023/01/05 06:13:43;;;;;;;36.20;5.93;;;10.90;99.90;;;;;;5055264;28;20025;-74
2023/01/05 06:16:09;;;;;;;47.28;6.07;;;10.90;99.90;;;;;;5054708;28;20360;-73
2023/01/05 06:18:35;;;;;;;50.22;7.25;;;10.90;99.90;;;;;;5055136;28;20116;-73
2023/01/05 06:21:00;;;;;;;37.35;6.82;;;10.90;99.90;;;;;;5055108;28;20024;-73
2023/01/05 06:23:26;;;;;;;33.10;5.80;;;10.90;99.90;;;;;;5054323;28;20036;-73
2023/01/05 06:25:51;;;;;;;36.78;5.05;;;10.80;99.90;;;;;;5054103;28;20070;-73
2023/01/05 06:28:17;;;;;;;38.97;6.35;;;10.80;99.90;;;;;;5054313;28;20480;-73
2023/01/05 06:30:42;;;;;;;40.38;5.53;;;10.90;99.90;;;;;;5053934;28;20036;-73
2023/01/05 06:33:08;;;;;;;34.72;6.68;;;10.90;99.90;;;;;;5054666;28;20028;-73
2023/01/05 06:35:34;;;;;;;46.53;7.30;;;10.90;99.90;;;;;;5054434;28;20024;-74
2023/01/05 06:37:59;;;;;;;43.20;6.90;;;10.80;99.90;;;;;;5053623;28;20027;-74
2023/01/05 06:40:25;;;;;;;40.53;6.40;;;10.80;99.90;;;;;;5043311;28;20033;-74
2023/01/05 06:42:50;;;;;;;39.90;5.35;;;10.80;99.90;;;;;;5050579;28;20025;-73
2023/01/05 06:45:16;;;;;;;25.10;4.80;;;11.30;99.90;;;;;;5054103;28;20075;-74
2023/01/05 06:47:43;;;;;;;39.53;5.95;;;11.00;99.90;;;;;;5054254;28;20533;-73
2023/01/05 06:50:09;;;;;;;33.08;6.22;;;10.90;99.90;;;;;;5053812;28;20499;-74
2023/01/05 06:52:38;;;;;;;38.28;5.22;;;10.80;99.90;;;;;;5052710;28;20025;-73
2023/01/05 06:55:09;;;;;;;42.55;5.43;;;10.90;99.90;;;;;;5053130;28;20033;-73
2023/01/05 06:57:35;;;;;;;30.83;5.93;;;10.80;99.90;;;;;;5053411;28;20029;-74
2023/01/05 07:00:06;;;;;;;32.42;5.15;;;10.80;99.90;;;;;;5053803;28;20123;-73
2023/01/05 07:02:31;;;;;;;36.35;6.38;;;10.80;99.90;;;;;;5054759;28;20470;-73
2023/01/05 07:04:57;;;;;;;30.38;5.53;;;10.90;99.90;;;;;;5053890;28;20070;-74
2023/01/05 07:07:23;;;;;;;39.20;5.38;;;10.90;99.90;;;;;;5041138;28;20029;-73
2023/01/05 07:09:48;;;;;;;31.05;5.00;;;10.80;99.90;;;;;;5038265;28;20147;-74
2023/01/05 07:12:15;;;;;;;41.72;5.82;;;10.80;99.90;;;;;;5041309;28;20462;-73
2023/01/05 07:14:41;;;;;;;24.75;4.38;;;10.90;99.90;;;;;;5034801;28;20095;-73
2023/01/05 07:17:06;;;;;;;37.08;5.88;;;10.80;99.90;;;;;;5041066;28;20552;-72
2023/01/05 07:19:32;;;;;;;27.20;5.43;;;10.80;99.90;;;;;;5032854;28;20038;-73
2023/01/05 07:21:58;;;;;;;30.65;5.38;;;10.90;99.90;;;;;;5036515;28;20036;-73
2023/01/05 07:24:23;;;;;;;34.55;5.55;;;10.80;99.90;;;;;;5033614;28;20029;-74
2023/01/05 07:26:49;;;;;;;48.67;6.97;;;10.80;99.90;;;;;;5033416;28;20382;-73
2023/01/05 07:29:15;;;;;;;37.40;5.38;;;10.80;99.90;;;;;;5033971;28;20148;-74
2023/01/05 07:31:41;;;;;;;41.05;7.10;;;10.70;99.90;;;;;;5034387;28;20037;-74
2023/01/05 07:34:08;;;;;;;38.22;6.18;;;10.70;99.90;;;;;;5033004;28;20429;-74
2023/01/05 07:36:34;;;;;;;40.25;5.28;;;10.70;99.90;;;;;;5034530;28;20156;-73
2023/01/05 07:38:59;;;;;;;32.30;5.05;;;10.70;99.90;;;;;;5033922;28;20132;-74
2023/01/05 07:41:25;;;;;;;32.55;5.53;;;10.70;99.90;;;;;;5051988;28;20017;-74
2023/01/05 07:43:50;;;;;;;46.22;6.25;;;10.70;99.90;;;;;;5053294;28;20025;-72
2023/01/05 07:46:16;;;;;;;34.90;5.30;;;10.60;99.90;;;;;;5053609;28;20021;-76
2023/01/05 07:48:42;;;;;;;37.55;6.22;;;10.70;99.90;;;;;;5054172;28;20079;-74
2023/01/05 07:51:09;;;;;;;30.08;5.20;;;10.60;99.90;;;;;;5053029;28;20100;-75
2023/01/05 07:53:37;;;;;;;31.30;6.38;;;10.60;99.90;;;;;;5046785;28;20477;-74
2023/01/05 07:56:04;;;;;;;31.55;5.00;;;10.50;99.90;;;;;;5057668;28;20028;-73
2023/01/05 07:58:30;;;;;;;32.03;4.93;;;10.60;99.90;;;;;;5059415;28;20201;-75
2023/01/05 08:00:55;;;;;;;36.97;5.57;;;10.50;99.90;;;;;;5055627;28;20051;-75
2023/01/05 08:03:21;;;;;;;38.97;5.90;;;10.60;99.90;;;;;;5049227;28;20112;-75
2023/01/05 08:05:47;;;;;;;32.58;5.35;;;10.50;99.90;;;;;;5042052;28;20032;-76
2023/01/05 08:08:14;;;;;;;39.40;5.45;;;10.50;99.90;;;;;;5050165;28;20027;-74
2023/01/05 08:10:41;;;;;;;32.65;5.68;;;10.50;99.90;;;;;;5048431;28;20364;-74
2023/01/05 08:15:54;;;;;;;38.22;6.32;;;10.30;99.90;;;;;;5044647;28;20039;-74
2023/01/05 08:18:21;;;;;;;34.10;5.70;;;10.40;99.90;;;;;;5045198;28;20449;-73
2023/01/05 08:20:55;;;;;;;32.70;6.18;;;10.30;99.90;;;;;;5046124;28;20048;-72
2023/01/05 08:23:21;;;;;;;32.85;4.88;;;10.40;99.90;;;;;;5050771;28;20040;-75
2023/01/05 08:25:47;;;;;;;41.58;6.05;;;10.40;99.90;;;;;;5040323;28;20030;-73
2023/01/05 08:28:12;;;;;;;43.22;6.85;;;10.40;99.90;;;;;;5049785;28;20057;-71
2023/01/05 08:30:38;;;;;;;30.98;4.57;;;10.40;99.90;;;;;;5048895;28;20021;-72
2023/01/05 08:33:04;;;;;;;38.40;5.18;;;10.30;99.90;;;;;;5040910;28;20029;-70
2023/01/05 08:35:30;;;;;;;35.53;5.40;;;10.30;99.90;;;;;;5046620;28;20029;-69
2023/01/05 08:37:55;;;;;;;31.95;6.45;;;10.30;99.90;;;;;;5048204;28;20021;-69
2023/01/05 08:40:21;;;;;;;41.33;6.43;;;10.40;99.90;;;;;;5043873;28;20484;-70
2023/01/05 08:42:47;;;;;;;33.35;5.97;;;10.40;99.90;;;;;;5041938;28;20028;-71
2023/01/05 08:45:16;;;;;;;51.90;5.97;;;10.40;99.90;;;;;;5043528;28;20060;-70
2023/01/05 08:47:42;;;;;;;23.70;4.78;;;10.50;99.90;;;;;;5032059;28;20025;-71
2023/01/05 08:50:10;;;;;;;33.40;6.50;;;10.50;99.90;;;;;;5038850;28;20120;-71
2023/01/05 08:52:38;;;;;;;44.97;6.30;;;10.60;99.90;;;;;;5047379;28;20094;-71
2023/01/05 08:55:06;;;;;;;31.13;5.05;;;10.70;99.90;;;;;;5040536;28;20032;-70
2023/01/05 08:57:32;;;;;;;30.38;4.97;;;10.70;99.90;;;;;;5031038;28;20025;-71
2023/01/05 08:59:58;;;;;;;34.08;6.18;;;10.70;99.90;;;;;;5030556;28;20393;-70
2023/01/05 09:02:24;;;;;;;36.88;8.00;;;10.70;99.90;;;;;;5031349;28;20029;-70
2023/01/05 09:04:50;;;;;;;29.90;5.63;;;10.80;99.90;;;;;;5035367;28;20465;-70
2023/01/05 09:07:15;;;;;;;39.50;5.57;;;10.80;99.90;;;;;;5033578;28;20119;-72
2023/01/05 09:09:41;;;;;;;32.35;4.47;;;10.90;99.90;;;;;;5031905;28;20037;-71
2023/01/05 09:12:07;;;;;;;36.70;5.72;;;10.80;99.90;;;;;;5033591;28;20044;-70
2023/01/05 09:14:32;;;;;;;35.58;4.80;;;10.90;99.90;;;;;;5035262;28;20108;-69
2023/01/05 09:16:58;;;;;;;34.10;5.85;;;10.90;99.90;;;;;;5047697;28;20021;-70
2023/01/05 09:19:24;;;;;;;34.38;5.95;;;11.00;99.90;;;;;;5039320;28;20389;-71
2023/01/05 09:21:51;;;;;;;39.13;5.72;;;11.00;99.90;;;;;;5042169;28;20561;-70
2023/01/05 09:24:16;;;;;;;34.45;4.88;;;11.00;99.90;;;;;;5031922;28;20022;-71
2023/01/05 09:26:42;;;;;;;35.50;5.00;;;11.00;99.90;;;;;;5040335;28;20029;-70
2023/01/05 09:29:08;;;;;;;40.55;6.40;;;11.00;99.90;;;;;;5045093;28;20135;-70
2023/01/05 09:31:34;;;;;;;35.78;6.38;;;11.00;99.90;;;;;;5046572;28;20028;-69
2023/01/05 09:33:59;;;;;;;30.88;5.40;;;11.10;99.90;;;;;;5046148;28;20017;-69
2023/01/05 09:36:25;;;;;;;39.72;6.38;;;11.00;99.90;;;;;;5044392;28;20071;-71
2023/01/05 09:38:52;;;;;;;39.22;6.40;;;11.00;99.90;;;;;;5045328;28;20056;-71
2023/01/05 09:41:35;;;;;;;34.80;5.63;;;11.10;99.90;;;;;;5045167;28;20029;-70
2023/01/05 09:44:19;;;;;;;39.15;5.95;;;11.10;99.90;;;;;;5040244;28;20036;-72
2023/01/05 09:46:48;;;;;;;33.00;6.10;;;11.10;99.90;;;;;;5029708;28;20026;-73
2023/01/05 09:49:15;;;;;;;49.13;6.38;;;11.20;99.90;;;;;;5030927;28;20148;-72
2023/01/05 09:51:42;;;;;;;34.30;6.20;;;11.20;99.90;;;;;;5031453;28;20025;-72
2023/01/05 09:54:15;;;;;;;39.15;6.13;;;11.20;99.90;;;;;;5038493;28;20033;-72
2023/01/05 09:56:44;;;;;;;34.40;5.22;;;11.30;99.90;;;;;;5032970;28;20104;-74
2023/01/05 09:59:32;;;;;;;32.40;4.70;;;11.30;99.90;;;;;;5035995;28;20124;-74
2023/01/05 10:02:03;;;;;;;25.85;5.25;;;11.30;99.90;;;;;;5053980;28;20030;-74
2023/01/05 10:04:32;;;;;;;42.22;5.45;;;11.40;99.90;;;;;;5046912;28;20030;-72
2023/01/05 10:07:07;;;;;;;45.08;6.63;;;11.30;99.90;;;;;;5035309;28;20029;-72
2023/01/05 10:09:38;;;;;;;33.92;5.47;;;11.30;99.90;;;;;;5030962;28;20021;-71
2023/01/05 10:15:10;;;;;;;37.15;6.90;;;11.40;99.90;;;;;;5051463;28;20036;-73
2023/01/05 10:17:41;;;;;;;30.88;5.90;;;11.40;99.90;;;;;;5041623;28;20499;-72
2023/01/05 10:20:31;;;;;;;35.15;6.57;;;11.40;99.90;;;;;;5046045;28;20041;-70
2023/01/05 10:23:20;;;;;;;42.67;6.55;;;11.50;99.90;;;;;;5038786;28;20365;-70
2023/01/05 10:25:56;;;;;;;37.25;6.20;;;11.60;99.90;;;;;;5047556;28;20035;-68
2023/01/05 10:28:47;;;;;;;32.20;5.10;;;11.60;99.90;;;;;;5047660;28;20037;-68
2023/01/05 10:31:22;;;;;;;;;;;11.60;99.90;;;;;;5032933;28;20104;-68
2023/01/05 10:34:07;;;;;;;31.63;5.80;;;11.70;99.90;;;;;;5047852;28;20423;-68
2023/01/05 10:36:56;;;;;;;48.42;8.00;;;11.80;99.90;;;;;;5050380;28;20029;-69
2023/01/05 10:39:43;;;;;;;34.83;5.93;;;11.90;99.90;;;;;;5045455;28;20056;-68
2023/01/05 10:42:27;;;;;;;44.08;7.20;;;12.00;99.90;;;;;;5045598;28;20029;-68
2023/01/05 10:45:02;;;;;;;24.85;5.40;;;12.00;99.90;;;;;;5048280;28;20472;-70
2023/01/05 10:47:31;;;;;;;48.92;7.47;;;12.10;99.90;;;;;;5038577;28;20151;-73
2023/01/05 10:49:58;;;;;;;40.83;6.07;;;12.10;99.90;;;;;;5040255;28;20116;-70
2023/01/05 10:52:24;;;;;;;34.25;6.07;;;12.10;99.90;;;;;;5044383;28;20128;-71
2023/01/05 10:54:49;;;;;;;38.50;6.18;;;12.10;99.90;;;;;;5046262;28;20066;-71
2023/01/05 10:57:27;;;;;;;46.30;8.30;;;12.10;99.90;;;;;;5045312;28;20071;-69
2023/01/05 10:59:55;;;;;;;36.45;6.45;;;12.00;99.90;;;;;;5051009;28;20044;-71
2023/01/05 11:02:21;;;;;;;42.45;6.18;;;11.90;99.90;;;;;;5045458;28;20026;-70
2023/01/05 11:04:48;;;;;;;39.67;7.13;;;11.80;99.90;;;;;;5048318;28;20075;-70
2023/01/05 11:07:13;;;;;;;42.50;6.72;;;11.90;99.90;;;;;;5047299;28;20068;-70
2023/01/05 11:09:40;;;;;;;51.53;8.10;;;11.80;99.90;;;;;;5039390;28;20489;-70
2023/01/05 11:12:15;;;;;;;30.05;5.45;;;12.00;99.90;;;;;;5051471;28;20106;-70
2023/01/05 11:14:43;;;;;;;35.58;6.75;;;11.90;99.90;;;;;;5057333;28;20108;-71
2023/01/05 11:17:18;;;;;;;49.10;8.32;;;12.00;99.90;;;;;;5051373;28;20020;-70
2023/01/05 11:19:48;;;;;;;40.55;6.65;;;12.00;99.90;;;;;;5043044;28;20098;-71
2023/01/05 11:22:33;;;;;;;47.97;8.73;;;11.90;99.90;;;;;;5044204;28;20390;-69
2023/01/05 11:25:22;;;;;;;41.33;6.50;;;11.90;99.90;;;;;;5034426;28;20025;-70
2023/01/05 11:28:16;;;;;;;29.23;5.07;;;11.80;99.90;;;;;;5032862;28;20069;-70
2023/01/05 11:31:07;;;;;;;40.63;6.75;;;11.80;99.90;;;;;;5040845;28;20036;-69
2023/01/05 11:33:38;;;;;;;47.88;8.43;;;11.80;99.90;;;;;;5045976;28;20094;-70
2023/01/05 11:36:04;;;;;;;35.72;5.75;;;11.80;99.90;;;;;;5045117;28;20433;-71
2023/01/05 11:38:31;;;;;;;50.63;7.85;;;11.70;99.90;;;;;;5049104;28;20033;-70
2023/01/05 11:40:59;;;;;;;48.88;7.30;;;11.70;99.90;;;;;;5046071;28;20028;-72
2023/01/05 11:43:29;;;;;;;42.15;6.78;;;11.80;99.90;;;;;;5051120;28;20029;-72
2023/01/05 11:45:58;;;;;;;39.30;6.75;;;11.90;99.90;;;;;;5038844;28;20120;-72
2023/01/05 11:48:31;;;;;;;40.25;6.88;;;11.90;99.90;;;;;;5043963;28;20024;-72
2023/01/05 11:50:57;;;;;;;45.03;5.85;;;11.90;99.90;;;;;;5033325;28;20042;-72
2023/01/05 11:53:24;;;;;;;44.35;6.32;;;11.80;99.90;;;;;;5032636;28;20021;-73
2023/01/05 11:56:01;;;;;;;50.30;7.03;;;11.90;99.90;;;;;;5033350;28;20029;-72
2023/01/05 11:58:46;;;;;;;41.83;6.82;;;11.80;99.90;;;;;;5044618;28;20419;-70
2023/01/05 12:01:51;;;;;;;37.85;6.15;;;11.70;99.90;;;;;;5043035;28;20059;-71
2023/01/05 12:04:34;;;;;;;43.97;6.90;;;11.80;99.90;;;;;;5046611;28;20121;-71
2023/01/05 12:07:28;;;;;;;38.72;6.15;;;11.70;99.90;;;;;;5046475;28;20080;-72
2023/01/05 12:10:18;;;;;;;45.03;7.55;;;11.60;99.90;;;;;;5048527;28;20025;-71
2023/01/05 12:12:52;;;;;;;37.10;6.28;;;11.60;99.90;;;;;;5052815;28;20355;-72
2023/01/05 12:15:28;;;;;;;35.58;5.82;;;11.60;99.90;;;;;;5051909;28;20032;-70
2023/01/05 12:17:57;;;;;;;43.05;6.97;;;11.60;99.90;;;;;;5041052;28;20033;-71
2023/01/05 12:20:54;;;;;;;31.83;6.10;;;11.70;99.90;;;;;;5049876;28;20523;-72
2023/01/05 12:23:58;;;;;;;39.28;6.55;;;11.70;99.90;;;;;;5051434;28;20029;-72
2023/01/05 12:26:30;;;;;;;41.17;5.55;;;11.70;99.90;;;;;;5029441;28;20060;-71
2023/01/05 12:29:22;;;;;;;28.50;5.32;;;11.80;99.90;;;;;;5036969;28;20124;-73
2023/01/05 12:32:25;;;;;;;41.33;8.07;;;11.80;99.90;;;;;;5038046;28;20041;-72
2023/01/05 12:35:40;;;;;;;36.88;6.60;;;11.70;99.90;;;;;;5035161;28;20418;-72
2023/01/05 12:38:23;;;;;;;39.08;6.55;;;11.80;99.90;;;;;;5038929;28;20025;-72
2023/01/05 12:41:21;;;;;;;40.13;7.90;;;11.90;99.90;;;;;;5036751;28;20030;-71
2023/01/05 12:43:59;;;;;;;47.58;8.43;;;12.00;99.90;;;;;;5047783;28;20119;-72
2023/01/05 12:47:00;;;;;;;54.42;8.50;;;12.00;99.90;;;;;;5049373;28;20116;-72
2023/01/05 12:49:45;;;;;;;49.15;8.25;;;12.00;99.90;;;;;;5045565;28;20751;-71
2023/01/05 12:52:35;;;;;;;45.45;9.15;;;12.00;99.90;;;;;;5046906;28;20040;-71
2023/01/05 12:55:04;;;;;;;58.20;10.73;;;12.00;99.90;;;;;;5047176;28;20028;-72
2023/01/05 12:57:43;;;;;;;59.03;10.27;;;12.00;99.90;;;;;;5039965;28;20078;-73
2023/01/05 13:00:17;;;;;;;35.67;6.38;;;12.00;99.90;;;;;;5048967;28;20033;-72
2023/01/05 13:02:57;;;;;;;44.67;7.57;;;12.10;99.90;;;;;;5045662;28;20032;-71
2023/01/05 13:05:54;;;;;;;43.67;8.15;;;12.10;99.90;;;;;;5044651;28;20048;-72
2023/01/05 13:08:23;;;;;;;41.47;7.72;;;12.10;99.90;;;;;;5042487;28;20017;-72
2023/01/05 13:11:00;;;;;;;38.97;7.35;;;12.10;99.90;;;;;;5049611;28;20378;-72
2023/01/05 13:13:35;;;;;;;44.65;7.68;;;12.00;99.90;;;;;;5046336;28;20032;-74
2023/01/05 13:16:10;;;;;;;38.63;6.68;;;12.10;99.90;;;;;;5050054;28;20021;-74
2023/01/05 13:18:40;;;;;;;56.05;8.05;;;12.10;99.90;;;;;;5041968;28;20022;-73
2023/01/05 13:21:07;;;;;;;46.67;7.82;;;12.10;99.90;;;;;;5046655;28;20032;-72
2023/01/05 13:23:47;;;;;;;45.78;7.05;;;12.00;99.90;;;;;;5042185;28;20029;-74
2023/01/05 13:26:21;;;;;;;43.42;8.25;;;12.10;99.90;;;;;;5040062;28;20021;-72
2023/01/05 13:28:48;;;;;;;44.67;6.93;;;12.10;99.90;;;;;;5042779;28;20528;-72
2023/01/05 13:31:45;;;;;;;42.30;6.70;;;12.10;99.90;;;;;;5042978;28;20040;-73